Peritiba, Brazil
Current Conditions -  °F | °C
As of 4:00 PM on Tuesday 21 Oct 2014 (Local Time) from SBCH Reporting Station
Few Clouds Few Clouds  
Wind Chill: 81°   Ceiling: Unl
Heat Index: 82°   Visibility: 6mi
Dew Point: 64°   Wind: 14mph
Humidity: 58%   Direction: 200°SSW
Pressure: 30.09"   Gusts: NA
Location:  27.37°S, 51.9°W
Report Text: SBCH 211800Z 20012KT 9999 FEW030 27/18 Q1019
Loading
Personal Weather Stations






























Interactive Weather Map
Tropical Storm Tracking
New forecast layout! Learn more

10-Day Weather Forecast

Advertisements
Track Severe Weather on mobile